DW2921 Weather Reports


Display with metric or nautical units.
time (UTC)temp
F
wind
direction
speed
MPH
gust
MPH
rain 1hr
in
rain 24hr
in
rain mn
in
humidity
%
barometer
mb
20200224231103 46 20 0.0 0.0 0.03 0.33 0.33 40 1007.0
20200224230104 46 81 0.0 0.0 0.04 0.33 0.33 40 1007.0
20200224225104 46 55 0.0 0.0 0.04 0.33 0.33 40 1007.0
20200224224104 46 77 0.0 0.0 0.05 0.32 0.32 40 1007.0
20200224223105 46 92 0.0 0.0 0.06 0.32 0.32 40 1007.0
20200224222103 46 95 0.0 0.0 0.06 0.31 0.31 40 1007.0
20200224221103 46 59 0.0 0.0 0.07 0.30 0.30 40 1007.0
20200224220104 46 39 0.0 0.0 0.08 0.29 0.29 40 1007.0
20200224215104 46 39 0.0 0.0 0.10 0.29 0.29 40 1007.0
20200224214104 46 119 0.0 0.0 0.10 0.27 0.27 40 1007.0
20200224213104 46 118 0.0 0.0 0.11 0.26 0.26 40 1007.0
20200224212104 46 124 0.0 0.0 0.11 0.25 0.25 40 1007.0
20200224211103 46 102 0.0 0.0 0.10 0.23 0.23 40 1007.0
20200224210104 46 117 0.0 0.0 0.10 0.21 0.21 40 1007.0
20200224205103 46 117 0.0 0.0 0.09 0.19 0.19 40 1007.0
20200224204103 46 117 0.0 0.0 0.08 0.17 0.17 40 1007.0
20200224203104 46 117 0.0 0.0 0.07 0.15 0.15 40 1007.0
20200224202104 46 124 0.0 0.0 0.07 0.14 0.14 40 1007.0
20200224201103 46 118 0.0 0.0 0.06 0.13 0.13 40 1007.0
20200224200103 47 119 0.0 0.0 0.05 0.11 0.11 40 1007.0
20200224195104 47 150 0.0 0.0 0.05 0.10 0.10 40 1007.0
20200224194104 47 115 0.0 0.0 0.05 0.09 0.09 40 1007.0
20200224193105 47 131 0.0 0.0 0.06 0.08 0.08 40 1007.0
20200224192104 47 109 0.0 0.0 0.05 0.07 0.07 40 1007.0
20200224191104 47 93 0.0 0.0 0.05 0.07 0.07 40 1007.0
20200224190105 47 99 0.0 0.0 0.05 0.06 0.06 40 1007.0
20200224185104 47 134 0.0 0.0 0.05 0.05 0.05 40 1007.0
20200224184104 47 85 0.0 0.0 0.04 0.04 0.04 40 1007.0
20200224183104 47 75 0.0 0.0 0.02 0.02 0.02 40 1007.0
20200224182104 47 84 0.0 0.0 0.02 0.02 0.02 40 1007.0
20200224181104 47 97 0.0 0.0 0.02 0.02 0.02 40 1007.0
20200224180104 47 97 0.0 0.0 0.01 0.01 0.01 40 1007.0
20200224175104 46 97 0.0 0.0 0.00 0.00 0.00 40 1007.0
20200224174104 47 101 0.0 0.0 0.00 0.00 0.00 40 1007.0
20200224173103 47 136 0.0 0.0 0.00 0.00 0.00 40 1007.0
20200224172104 46 96 0.0 0.0 0.00 0.00 0.00 40 1007.0
20200224171104 46 120 0.0 0.0 0.00 0.00 0.00 40 1007.0
20200224170104 46 111 0.0 0.0 0.00 0.00 0.00 40 1007.0
20200224165104 46 119 0.0 0.0 0.00 0.00 0.00 40 1007.0
20200224164103 46 77 0.0 0.0 0.00 0.00 0.00 40 1007.0
20200224163104 46 106 0.0 0.0 0.00 0.00 0.00 40 1007.0
20200224162104 46 118 0.0 0.0 0.00 0.00 0.00 40 1007.0
20200224161104 46 63 0.0 0.0 0.00 0.00 0.00 40 1007.0
20200224160104 46 96 0.0 0.0 0.00 0.00 0.00 40 1007.0
20200224155103 45 122 0.0 0.0 0.00 0.00 0.00 40 1007.0
20200224154104 45 186 0.0 0.0 0.00 0.00 0.00 40 1007.0
20200224153104 45 186 0.0 0.0 0.00 0.00 0.00 40 1007.0
20200224152103 45 186 0.0 0.0 0.00 0.00 0.00 40 1007.0
20200224151104 45 186 0.0 0.0 0.00 0.00 0.00 40 1007.0
20200224150104 45 186 0.0 0.0 0.00 0.00 0.00 40 1007.0
20200224145104 45 187 0.0 0.0 0.00 0.00 0.00 40 1007.0
20200224144104 45 187 0.0 0.0 0.00 0.00 0.00 40 1007.0
20200224143103 44 187 0.0 0.0 0.00 0.00 0.00 40 1007.0
20200224142104 44 187 0.0 0.0 0.00 0.00 0.00 40 1007.0
20200224141104 44 187 0.0 0.0 0.00 0.00 0.00 40 1007.0
20200224140104 44 187 0.0 0.0 0.00 0.00 0.00 40 1007.0
20200224135104 44 187 0.0 0.0 0.00 0.00 0.00 40 1007.0
20200224134104 44 187 0.0 0.0 0.00 0.00 0.00 40 1007.0
20200224133104 44 187 0.0 0.0 0.00 0.00 0.00 40 1007.0
20200224132104 44 191 0.0 0.0 0.00 0.00 0.00 40 1007.0
20200224131104 44 189 0.0 0.0 0.00 0.00 0.00 40 1007.0
20200224130104 44 189 0.0 0.0 0.00 0.00 0.00 40 1007.0
20200224125104 44 190 0.0 0.0 0.00 0.00 0.00 40 1007.0
20200224124104 44 190 0.0 0.0 0.00 0.00 0.00 40 1007.0
20200224123104 44 227 0.0 0.0 0.00 0.00 0.00 40 1007.0
20200224122104 44 227 0.0 0.0 0.00 0.00 0.00 40 1007.0
20200224121104 44 227 0.0 0.0 0.00 0.00 0.00 40 1007.0
20200224120104 44 227 0.0 0.0 0.00 0.00 0.00 40 1007.0
20200224115106 44 227 0.0 0.0 0.00 0.00 0.00 40 1007.0
20200224114104 44 227 0.0 0.0 0.00 0.00 0.00 40 1007.0
20200224113104 44 23 0.0 0.0 0.00 0.00 0.00 40 1007.0
20200224112104 45 23 0.0 0.0 0.00 0.00 0.00 40 1007.0
20200224111104 45 22 0.0 0.0 0.00 0.00 0.00 40 1007.0
20200224110104 45 111 0.0 0.0 0.00 0.00 0.00 40 1007.0
20200224105104 45 212 0.0 0.0 0.00 0.00 0.00 40 1007.0
20200224104104 45 212 0.0 0.0 0.00 0.00 0.00 40 1007.0
20200224103105 45 212 0.0 0.0 0.00 0.00 0.00 40 1007.0
20200224102104 45 212 0.0 0.0 0.00 0.00 0.00 40 1007.0
20200224101104 45 212 0.0 0.0 0.00 0.00 0.00 40 1007.0
20200224100104 45 212 0.0 0.0 0.00 0.00 0.00 40 1007.0
20200224095106 45 212 0.0 0.0 0.00 0.00 0.00 40 1007.0
20200224094104 45 212 0.0 0.0 0.00 0.00 0.00 40 1007.0
20200224093105 45 212 0.0 0.0 0.00 0.00 0.00 40 1007.0
20200224092105 46 212 0.0 0.0 0.00 0.00 0.00 40 1007.0
20200224091104 46 212 0.0 0.0 0.00 0.00 0.00 40 1007.0
20200224090104 46 212 0.0 0.0 0.00 0.00 0.00 40 1007.0
20200224085104 46 212 0.0 0.0 0.00 0.00 0.00 40 1007.0
20200224084104 46 212 0.0 0.0 0.00 0.00 0.00 40 1007.0
20200224083104 46 253 0.0 0.0 0.00 0.00 0.00 40 1007.0
20200224082105 46 217 0.0 0.0 0.00 0.00 0.00 40 1007.0
20200224081104 46 251 0.0 0.0 0.00 0.00 0.00 40 1007.0
20200224080112 46 231 0.0 0.0 0.00 0.00 0.00 40 1007.0
20200224075104 46 244 0.0 0.0 0.00 0.00 0.00 40 1007.0
20200224074104 46 201 0.0 0.0 0.00 0.00 0.00 40 1007.0
20200224073104 46 201 0.0 0.0 0.00 0.00 0.00 40 1007.0
20200224072105 46 201 0.0 0.0 0.00 0.00 0.00 40 1007.0
20200224071104 47 201 0.0 0.0 0.00 0.00 0.00 40 1007.0
20200224070105 47 201 0.0 0.0 0.00 0.00 0.00 40 1007.0
20200224065104 47 201 0.0 0.0 0.00 0.00 0.00 40 1007.0
20200224064104 47 201 0.0 0.0 0.00 0.00 0.00 40 1007.0
20200224063104 47 201 0.0 0.0 0.00 0.00 0.00 40 1007.0
20200224062106 47 201 0.0 0.0 0.00 0.00 0.00 40 1007.0
20200224061104 47 201 0.0 0.0 0.00 0.00 0.00 40 1007.0
20200224060105 47 201 0.0 0.0 0.00 0.00 0.00 40 1007.0
20200224055106 47 201 0.0 0.0 0.00 0.00 0.00 40 1007.0
20200224054104 47 201 0.0 0.0 0.00 0.00 0.00 40 1007.0
20200224053104 47 201 0.0 0.0 0.00 0.00 0.00 40 1007.0
20200224052104 47 201 0.0 0.0 0.00 0.00 0.00 40 1007.0
20200224051104 47 201 0.0 0.0 0.00 0.00 0.00 40 1007.0
20200224050105 47 201 0.0 0.0 0.00 0.00 0.00 40 1007.0
20200224045105 48 201 0.0 0.0 0.00 0.00 0.00 40 1007.0
20200224044104 48 201 0.0 0.0 0.00 0.00 0.00 40 1007.0
20200224043104 48 201 0.0 0.0 0.00 0.00 0.00 40 1007.0
20200224042105 48 201 0.0 0.0 0.00 0.00 0.00 40 1007.0
20200224041104 48 201 0.0 0.0 0.00 0.00 0.00 40 1007.0
20200224040104 48 201 0.0 0.0 0.00 0.00 0.00 40 1007.0
20200224035105 49 201 0.0 0.0 0.00 0.00 0.00 40 1007.0
20200224034104 49 201 0.0 0.0 0.00 0.00 0.00 40 1007.0
20200224033104 49 201 0.0 0.0 0.00 0.00 0.00 40 1007.0
20200224032105 49 200 0.0 0.0 0.00 0.00 0.00 40 1007.0
20200224031104 49 183 0.0 0.0 0.00 0.00 0.00 40 1007.0
20200224030104 49 208 0.0 0.0 0.00 0.00 0.00 40 1007.0
20200224025104 49 208 0.0 0.0 0.00 0.00 0.00 40 1007.0
20200224024104 49 208 0.0 0.0 0.00 0.00 0.00 40 1007.0
20200224023107 49 208 0.0 0.0 0.00 0.00 0.00 40 1007.0
20200224022104 49 208 0.0 0.0 0.00 0.00 0.00 40 1007.0
20200224021104 49 208 0.0 0.0 0.00 0.00 0.00 40 1007.0
20200224020104 49 208 0.0 0.0 0.00 0.00 0.00 40 1007.0
20200224015104 50 208 0.0 0.0 0.00 0.00 0.00 40 1007.0
20200224014104 50 208 0.0 0.0 0.00 0.00 0.00 40 1007.0
20200224013104 50 197 0.0 0.0 0.00 0.00 0.00 40 1007.0
20200224012105 50 192 0.0 0.0 0.00 0.00 0.00 40 1007.0
20200224011104 50 204 0.0 0.0 0.00 0.00 0.00 40 1007.0
20200224010105 51 194 0.0 0.0 0.00 0.00 0.00 40 1007.0
20200224005105 51 214 0.0 0.0 0.00 0.00 0.00 40 1007.0
20200224004106 51 212 0.0 0.0 0.00 0.00 0.00 40 1007.0
20200224003105 51 208 0.0 0.0 0.00 0.00 0.00 40 1007.0
20200224002106 51 209 0.0 0.0 0.00 0.00 0.00 40 1007.0
20200224001106 51 200 0.0 0.0 0.00 0.00 0.00 40 1007.0
20200224000105 51 200 0.0 0.0 0.00 0.00 0.00 40 1007.0
20200223235104 51 200 0.0 0.0 0.00 0.00 0.00 40 1007.0
20200223234104 51 205 0.0 0.0 0.00 0.00 0.00 40 1007.0
20200223233104 52 222 0.0 0.0 0.00 0.00 0.00 40 1007.0
20200223232104 52 223 0.0 0.0 0.00 0.00 0.00 40 1007.0